sensor_id;sensor_type;location;lat;lon;timestamp;P1;durP1;ratioP1;P2;durP2;ratioP2
3589;SDS011;1809;48.470;9.226;2023-09-19T00:02:12;1.27;;;0.90;;
3589;SDS011;1809;48.470;9.226;2023-09-19T00:04:40;1.43;;;0.90;;
3589;SDS011;1809;48.470;9.226;2023-09-19T00:07:05;2.20;;;0.90;;
3589;SDS011;1809;48.470;9.226;2023-09-19T00:09:30;2.60;;;1.33;;
3589;SDS011;1809;48.470;9.226;2023-09-19T00:12:02;1.37;;;1.07;;
3589;SDS011;1809;48.470;9.226;2023-09-19T00:14:28;2.80;;;0.90;;
3589;SDS011;1809;48.470;9.226;2023-09-19T00:16:53;1.20;;;1.10;;
3589;SDS011;1809;48.470;9.226;2023-09-19T00:19:19;2.63;;;0.87;;
3589;SDS011;1809;48.470;9.226;2023-09-19T00:21:45;0.80;;;0.80;;
3589;SDS011;1809;48.470;9.226;2023-09-19T00:24:12;1.07;;;0.97;;
3589;SDS011;1809;48.470;9.226;2023-09-19T00:26:39;1.23;;;0.87;;
3589;SDS011;1809;48.470;9.226;2023-09-19T00:29:04;1.10;;;1.10;;
3589;SDS011;1809;48.470;9.226;2023-09-19T00:31:29;1.20;;;0.73;;
3589;SDS011;1809;48.470;9.226;2023-09-19T00:33:55;2.00;;;0.80;;
3589;SDS011;1809;48.470;9.226;2023-09-19T00:36:25;1.37;;;1.27;;
3589;SDS011;1809;48.470;9.226;2023-09-19T00:38:50;1.13;;;0.80;;
3589;SDS011;1809;48.470;9.226;2023-09-19T00:41:15;0.90;;;0.90;;
3589;SDS011;1809;48.470;9.226;2023-09-19T00:43:41;1.10;;;0.90;;
3589;SDS011;1809;48.470;9.226;2023-09-19T00:46:06;1.10;;;0.87;;
3589;SDS011;1809;48.470;9.226;2023-09-19T00:48:32;0.90;;;0.90;;
3589;SDS011;1809;48.470;9.226;2023-09-19T00:51:08;1.10;;;1.00;;
3589;SDS011;1809;48.470;9.226;2023-09-19T00:53:33;1.10;;;0.83;;
3589;SDS011;1809;48.470;9.226;2023-09-19T00:55:59;4.70;;;0.97;;
3589;SDS011;1809;48.470;9.226;2023-09-19T00:58:25;2.30;;;0.70;;
3589;SDS011;1809;48.470;9.226;2023-09-19T01:00:50;0.90;;;0.90;;
3589;SDS011;1809;48.470;9.226;2023-09-19T01:03:16;1.23;;;0.77;;
3589;SDS011;1809;48.470;9.226;2023-09-19T01:05:43;5.90;;;1.13;;
3589;SDS011;1809;48.470;9.226;2023-09-19T01:08:09;0.80;;;0.80;;
3589;SDS011;1809;48.470;9.226;2023-09-19T01:10:36;2.23;;;0.87;;
3589;SDS011;1809;48.470;9.226;2023-09-19T01:13:43;1.77;;;0.90;;
3589;SDS011;1809;48.470;9.226;2023-09-19T01:21:29;1.00;;;0.90;;
3589;SDS011;1809;48.470;9.226;2023-09-19T01:27:15;2.20;;;0.90;;
3589;SDS011;1809;48.470;9.226;2023-09-19T01:29:50;2.63;;;1.00;;
3589;SDS011;1809;48.470;9.226;2023-09-19T01:32:20;3.70;;;0.93;;
3589;SDS011;1809;48.470;9.226;2023-09-19T01:34:56;1.10;;;1.00;;
3589;SDS011;1809;48.470;9.226;2023-09-19T01:37:24;0.97;;;0.97;;
3589;SDS011;1809;48.470;9.226;2023-09-19T01:39:58;0.93;;;0.90;;
3589;SDS011;1809;48.470;9.226;2023-09-19T01:48:49;2.60;;;1.10;;
3589;SDS011;1809;48.470;9.226;2023-09-19T01:51:37;1.83;;;1.10;;
3589;SDS011;1809;48.470;9.226;2023-09-19T01:54:30;1.20;;;1.20;;
3589;SDS011;1809;48.470;9.226;2023-09-19T01:57:05;2.40;;;1.00;;
3589;SDS011;1809;48.470;9.226;2023-09-19T01:59:41;1.60;;;1.50;;
3589;SDS011;1809;48.470;9.226;2023-09-19T02:02:14;2.40;;;1.53;;
3589;SDS011;1809;48.470;9.226;2023-09-19T02:04:42;2.83;;;1.53;;
3589;SDS011;1809;48.470;9.226;2023-09-19T02:07:08;1.83;;;1.17;;
3589;SDS011;1809;48.470;9.226;2023-09-19T02:09:33;1.47;;;1.30;;
3589;SDS011;1809;48.470;9.226;2023-09-19T02:12:00;3.60;;;1.20;;
3589;SDS011;1809;48.470;9.226;2023-09-19T02:14:29;3.47;;;1.53;;
3589;SDS011;1809;48.470;9.226;2023-09-19T02:16:54;1.20;;;1.10;;
3589;SDS011;1809;48.470;9.226;2023-09-19T02:19:20;1.80;;;1.63;;
3589;SDS011;1809;48.470;9.226;2023-09-19T02:21:46;2.40;;;1.50;;
3589;SDS011;1809;48.470;9.226;2023-09-19T02:24:13;1.30;;;1.30;;
3589;SDS011;1809;48.470;9.226;2023-09-19T02:26:40;2.40;;;1.13;;
3589;SDS011;1809;48.470;9.226;2023-09-19T02:29:05;1.10;;;1.10;;
3589;SDS011;1809;48.470;9.226;2023-09-19T02:31:31;1.10;;;1.07;;
3589;SDS011;1809;48.470;9.226;2023-09-19T02:33:56;5.73;;;1.20;;
3589;SDS011;1809;48.470;9.226;2023-09-19T02:36:22;1.43;;;1.23;;
3589;SDS011;1809;48.470;9.226;2023-09-19T02:38:48;4.23;;;1.17;;
3589;SDS011;1809;48.470;9.226;2023-09-19T02:41:14;0.77;;;0.77;;
3589;SDS011;1809;48.470;9.226;2023-09-19T02:43:39;1.13;;;1.13;;
3589;SDS011;1809;48.470;9.226;2023-09-19T02:46:04;1.20;;;1.10;;
3589;SDS011;1809;48.470;9.226;2023-09-19T02:48:30;1.43;;;1.33;;
3589;SDS011;1809;48.470;9.226;2023-09-19T02:50:57;1.83;;;1.30;;
3589;SDS011;1809;48.470;9.226;2023-09-19T02:53:22;1.30;;;1.20;;
3589;SDS011;1809;48.470;9.226;2023-09-19T02:55:49;1.20;;;1.10;;
3589;SDS011;1809;48.470;9.226;2023-09-19T02:58:14;1.33;;;1.23;;
3589;SDS011;1809;48.470;9.226;2023-09-19T03:00:41;1.33;;;1.20;;
3589;SDS011;1809;48.470;9.226;2023-09-19T03:03:11;2.00;;;1.00;;
3589;SDS011;1809;48.470;9.226;2023-09-19T03:05:38;1.20;;;1.10;;
3589;SDS011;1809;48.470;9.226;2023-09-19T03:08:03;2.73;;;1.23;;
3589;SDS011;1809;48.470;9.226;2023-09-19T03:10:30;1.40;;;1.30;;
3589;SDS011;1809;48.470;9.226;2023-09-19T03:12:56;1.00;;;1.00;;
3589;SDS011;1809;48.470;9.226;2023-09-19T03:15:21;1.30;;;1.20;;
3589;SDS011;1809;48.470;9.226;2023-09-19T03:17:47;1.17;;;0.80;;
3589;SDS011;1809;48.470;9.226;2023-09-19T03:20:14;0.93;;;0.93;;
3589;SDS011;1809;48.470;9.226;2023-09-19T03:22:42;1.10;;;1.10;;
3589;SDS011;1809;48.470;9.226;2023-09-19T03:25:08;1.47;;;0.90;;
3589;SDS011;1809;48.470;9.226;2023-09-19T03:27:34;1.27;;;1.00;;
3589;SDS011;1809;48.470;9.226;2023-09-19T03:30:00;2.20;;;0.80;;
3589;SDS011;1809;48.470;9.226;2023-09-19T03:32:26;1.40;;;1.40;;
3589;SDS011;1809;48.470;9.226;2023-09-19T03:34:51;3.53;;;1.10;;
3589;SDS011;1809;48.470;9.226;2023-09-19T03:37:17;1.30;;;1.20;;
3589;SDS011;1809;48.470;9.226;2023-09-19T03:39:43;1.50;;;1.40;;
3589;SDS011;1809;48.470;9.226;2023-09-19T03:42:08;3.17;;;1.10;;
3589;SDS011;1809;48.470;9.226;2023-09-19T03:44:34;1.10;;;1.10;;
3589;SDS011;1809;48.470;9.226;2023-09-19T03:46:59;2.60;;;0.90;;
3589;SDS011;1809;48.470;9.226;2023-09-19T03:49:24;1.27;;;1.10;;
3589;SDS011;1809;48.470;9.226;2023-09-19T03:51:50;1.13;;;1.13;;
3589;SDS011;1809;48.470;9.226;2023-09-19T03:54:15;0.83;;;0.83;;
3589;SDS011;1809;48.470;9.226;2023-09-19T03:56:42;2.50;;;1.10;;
3589;SDS011;1809;48.470;9.226;2023-09-19T03:59:08;1.80;;;1.70;;
3589;SDS011;1809;48.470;9.226;2023-09-19T04:01:34;1.30;;;1.20;;
3589;SDS011;1809;48.470;9.226;2023-09-19T04:03:59;1.27;;;1.13;;
3589;SDS011;1809;48.470;9.226;2023-09-19T04:06:33;2.50;;;1.13;;
3589;SDS011;1809;48.470;9.226;2023-09-19T04:09:04;1.00;;;0.90;;
3589;SDS011;1809;48.470;9.226;2023-09-19T04:11:31;1.20;;;1.07;;
3589;SDS011;1809;48.470;9.226;2023-09-19T04:13:58;3.70;;;1.60;;
3589;SDS011;1809;48.470;9.226;2023-09-19T04:16:23;1.80;;;1.70;;
3589;SDS011;1809;48.470;9.226;2023-09-19T04:18:48;1.93;;;1.60;;
3589;SDS011;1809;48.470;9.226;2023-09-19T04:21:14;2.30;;;2.10;;
3589;SDS011;1809;48.470;9.226;2023-09-19T04:23:39;5.17;;;1.90;;
3589;SDS011;1809;48.470;9.226;2023-09-19T04:26:04;1.30;;;1.30;;
3589;SDS011;1809;48.470;9.226;2023-09-19T04:28:30;2.83;;;1.10;;
3589;SDS011;1809;48.470;9.226;2023-09-19T04:30:57;1.80;;;1.70;;
3589;SDS011;1809;48.470;9.226;2023-09-19T04:33:23;1.83;;;1.20;;
3589;SDS011;1809;48.470;9.226;2023-09-19T04:35:50;1.30;;;1.20;;
3589;SDS011;1809;48.470;9.226;2023-09-19T04:38:16;2.53;;;1.50;;
3589;SDS011;1809;48.470;9.226;2023-09-19T04:40:42;2.93;;;1.20;;
3589;SDS011;1809;48.470;9.226;2023-09-19T04:43:08;2.60;;;1.67;;
3589;SDS011;1809;48.470;9.226;2023-09-19T04:45:33;2.40;;;2.20;;
3589;SDS011;1809;48.470;9.226;2023-09-19T04:47:59;6.30;;;2.07;;
3589;SDS011;1809;48.470;9.226;2023-09-19T04:50:25;2.20;;;2.10;;
3589;SDS011;1809;48.470;9.226;2023-09-19T04:52:51;2.97;;;2.50;;
3589;SDS011;1809;48.470;9.226;2023-09-19T04:55:20;2.50;;;1.80;;
3589;SDS011;1809;48.470;9.226;2023-09-19T04:57:45;2.37;;;2.17;;
3589;SDS011;1809;48.470;9.226;2023-09-19T05:00:16;2.33;;;2.07;;
3589;SDS011;1809;48.470;9.226;2023-09-19T05:02:45;2.27;;;2.07;;
3589;SDS011;1809;48.470;9.226;2023-09-19T05:05:11;4.03;;;2.47;;
3589;SDS011;1809;48.470;9.226;2023-09-19T05:07:41;2.20;;;2.00;;
3589;SDS011;1809;48.470;9.226;2023-09-19T05:10:07;2.70;;;2.37;;
3589;SDS011;1809;48.470;9.226;2023-09-19T05:12:33;2.87;;;2.20;;
3589;SDS011;1809;48.470;9.226;2023-09-19T05:15:00;4.10;;;2.40;;
3589;SDS011;1809;48.470;9.226;2023-09-19T05:17:27;4.30;;;2.07;;
3589;SDS011;1809;48.470;9.226;2023-09-19T05:19:52;1.83;;;1.73;;
3589;SDS011;1809;48.470;9.226;2023-09-19T05:22:17;1.50;;;1.40;;
3589;SDS011;1809;48.470;9.226;2023-09-19T05:24:43;2.10;;;1.80;;
3589;SDS011;1809;48.470;9.226;2023-09-19T05:27:13;1.73;;;1.33;;
3589;SDS011;1809;48.470;9.226;2023-09-19T05:29:41;1.43;;;1.33;;
3589;SDS011;1809;48.470;9.226;2023-09-19T05:32:10;1.33;;;1.23;;
3589;SDS011;1809;48.470;9.226;2023-09-19T05:34:36;1.07;;;1.07;;
3589;SDS011;1809;48.470;9.226;2023-09-19T05:37:02;1.97;;;1.60;;
3589;SDS011;1809;48.470;9.226;2023-09-19T05:39:27;1.57;;;1.47;;
3589;SDS011;1809;48.470;9.226;2023-09-19T05:41:53;1.43;;;1.33;;
3589;SDS011;1809;48.470;9.226;2023-09-19T05:44:18;6.83;;;1.47;;
3589;SDS011;1809;48.470;9.226;2023-09-19T05:46:43;2.07;;;1.20;;
3589;SDS011;1809;48.470;9.226;2023-09-19T05:49:10;1.30;;;1.20;;
3589;SDS011;1809;48.470;9.226;2023-09-19T05:51:35;1.57;;;1.20;;
3589;SDS011;1809;48.470;9.226;2023-09-19T05:54:00;1.40;;;1.30;;
3589;SDS011;1809;48.470;9.226;2023-09-19T05:56:26;3.77;;;2.27;;
3589;SDS011;1809;48.470;9.226;2023-09-19T05:58:52;1.50;;;1.40;;
3589;SDS011;1809;48.470;9.226;2023-09-19T06:01:18;2.07;;;1.30;;
3589;SDS011;1809;48.470;9.226;2023-09-19T06:03:43;0.97;;;0.97;;
3589;SDS011;1809;48.470;9.226;2023-09-19T06:06:09;1.50;;;1.40;;
3589;SDS011;1809;48.470;9.226;2023-09-19T06:08:34;1.37;;;1.27;;
3589;SDS011;1809;48.470;9.226;2023-09-19T06:11:00;1.63;;;1.23;;
3589;SDS011;1809;48.470;9.226;2023-09-19T06:13:27;1.53;;;1.37;;
3589;SDS011;1809;48.470;9.226;2023-09-19T06:15:54;2.90;;;0.90;;
3589;SDS011;1809;48.470;9.226;2023-09-19T06:18:21;1.30;;;1.20;;
3589;SDS011;1809;48.470;9.226;2023-09-19T06:20:47;0.90;;;0.90;;
3589;SDS011;1809;48.470;9.226;2023-09-19T06:23:13;1.63;;;0.93;;
3589;SDS011;1809;48.470;9.226;2023-09-19T06:25:39;0.90;;;0.90;;
3589;SDS011;1809;48.470;9.226;2023-09-19T06:28:05;1.73;;;0.93;;
3589;SDS011;1809;48.470;9.226;2023-09-19T06:30:33;1.53;;;0.97;;
3589;SDS011;1809;48.470;9.226;2023-09-19T06:32:59;1.20;;;1.20;;
3589;SDS011;1809;48.470;9.226;2023-09-19T06:35:28;1.90;;;1.10;;
3589;SDS011;1809;48.470;9.226;2023-09-19T06:37:57;1.10;;;1.00;;
3589;SDS011;1809;48.470;9.226;2023-09-19T06:40:23;1.57;;;0.90;;
3589;SDS011;1809;48.470;9.226;2023-09-19T06:42:52;0.90;;;0.90;;
3589;SDS011;1809;48.470;9.226;2023-09-19T06:45:19;1.20;;;1.10;;
3589;SDS011;1809;48.470;9.226;2023-09-19T06:47:47;1.90;;;1.10;;
3589;SDS011;1809;48.470;9.226;2023-09-19T06:50:15;1.20;;;1.10;;
3589;SDS011;1809;48.470;9.226;2023-09-19T06:52:43;1.33;;;0.90;;
3589;SDS011;1809;48.470;9.226;2023-09-19T06:55:09;1.03;;;0.90;;
3589;SDS011;1809;48.470;9.226;2023-09-19T06:57:38;0.80;;;0.80;;
3589;SDS011;1809;48.470;9.226;2023-09-19T07:00:05;1.80;;;1.17;;
3589;SDS011;1809;48.470;9.226;2023-09-19T07:02:40;1.27;;;1.00;;
3589;SDS011;1809;48.470;9.226;2023-09-19T07:05:06;1.13;;;1.03;;
3589;SDS011;1809;48.470;9.226;2023-09-19T07:07:32;3.20;;;1.10;;
3589;SDS011;1809;48.470;9.226;2023-09-19T07:10:00;1.03;;;0.80;;
3589;SDS011;1809;48.470;9.226;2023-09-19T07:12:30;1.67;;;0.90;;
3589;SDS011;1809;48.470;9.226;2023-09-19T07:14:56;1.20;;;1.00;;
3589;SDS011;1809;48.470;9.226;2023-09-19T07:17:22;1.00;;;1.00;;
3589;SDS011;1809;48.470;9.226;2023-09-19T07:19:48;1.73;;;1.00;;
3589;SDS011;1809;48.470;9.226;2023-09-19T07:22:15;2.23;;;1.10;;
3589;SDS011;1809;48.470;9.226;2023-09-19T07:24:40;1.47;;;0.80;;
3589;SDS011;1809;48.470;9.226;2023-09-19T07:27:06;1.40;;;1.30;;
3589;SDS011;1809;48.470;9.226;2023-09-19T07:29:31;1.87;;;1.07;;
3589;SDS011;1809;48.470;9.226;2023-09-19T07:31:56;1.57;;;1.03;;
3589;SDS011;1809;48.470;9.226;2023-09-19T07:34:22;0.80;;;0.80;;
3589;SDS011;1809;48.470;9.226;2023-09-19T07:36:49;1.27;;;1.10;;
3589;SDS011;1809;48.470;9.226;2023-09-19T07:39:15;2.07;;;1.00;;
3589;SDS011;1809;48.470;9.226;2023-09-19T07:41:40;1.33;;;1.00;;
3589;SDS011;1809;48.470;9.226;2023-09-19T07:44:06;0.83;;;0.80;;
3589;SDS011;1809;48.470;9.226;2023-09-19T07:46:32;0.90;;;0.90;;
3589;SDS011;1809;48.470;9.226;2023-09-19T07:48:57;1.63;;;1.53;;
3589;SDS011;1809;48.470;9.226;2023-09-19T07:51:23;4.50;;;1.30;;
3589;SDS011;1809;48.470;9.226;2023-09-19T07:53:48;1.10;;;1.10;;
3589;SDS011;1809;48.470;9.226;2023-09-19T07:56:14;2.40;;;1.70;;
3589;SDS011;1809;48.470;9.226;2023-09-19T07:58:39;1.30;;;1.20;;
3589;SDS011;1809;48.470;9.226;2023-09-19T08:01:09;4.27;;;1.10;;
3589;SDS011;1809;48.470;9.226;2023-09-19T08:03:35;2.70;;;0.97;;
3589;SDS011;1809;48.470;9.226;2023-09-19T08:06:05;1.07;;;0.97;;
3589;SDS011;1809;48.470;9.226;2023-09-19T08:08:32;1.80;;;1.20;;
3589;SDS011;1809;48.470;9.226;2023-09-19T08:11:04;1.27;;;1.17;;
3589;SDS011;1809;48.470;9.226;2023-09-19T08:13:36;1.30;;;1.20;;
3589;SDS011;1809;48.470;9.226;2023-09-19T08:16:08;1.17;;;1.10;;
3589;SDS011;1809;48.470;9.226;2023-09-19T08:18:35;0.90;;;0.90;;
3589;SDS011;1809;48.470;9.226;2023-09-19T08:21:00;5.50;;;1.13;;
3589;SDS011;1809;48.470;9.226;2023-09-19T08:23:26;1.17;;;1.10;;
3589;SDS011;1809;48.470;9.226;2023-09-19T08:25:55;0.93;;;0.93;;
3589;SDS011;1809;48.470;9.226;2023-09-19T08:28:21;1.53;;;1.43;;
3589;SDS011;1809;48.470;9.226;2023-09-19T08:30:49;1.10;;;1.00;;
3589;SDS011;1809;48.470;9.226;2023-09-19T08:33:15;2.63;;;1.17;;
3589;SDS011;1809;48.470;9.226;2023-09-19T08:35:41;1.30;;;1.20;;
3589;SDS011;1809;48.470;9.226;2023-09-19T08:38:08;2.57;;;1.20;;
3589;SDS011;1809;48.470;9.226;2023-09-19T08:40:39;0.93;;;0.80;;
3589;SDS011;1809;48.470;9.226;2023-09-19T08:43:06;2.20;;;0.90;;
3589;SDS011;1809;48.470;9.226;2023-09-19T08:45:32;2.60;;;1.17;;
3589;SDS011;1809;48.470;9.226;2023-09-19T08:48:06;1.00;;;1.00;;
3589;SDS011;1809;48.470;9.226;2023-09-19T08:50:43;3.00;;;1.10;;
3589;SDS011;1809;48.470;9.226;2023-09-19T08:53:15;1.67;;;0.90;;
3589;SDS011;1809;48.470;9.226;2023-09-19T08:56:05;1.43;;;1.33;;
3589;SDS011;1809;48.470;9.226;2023-09-19T08:58:46;1.30;;;1.07;;
3589;SDS011;1809;48.470;9.226;2023-09-19T09:01:16;4.53;;;1.30;;
3589;SDS011;1809;48.470;9.226;2023-09-19T09:03:49;1.10;;;1.10;;
3589;SDS011;1809;48.470;9.226;2023-09-19T09:06:16;2.70;;;1.30;;
3589;SDS011;1809;48.470;9.226;2023-09-19T09:08:43;1.20;;;1.10;;
3589;SDS011;1809;48.470;9.226;2023-09-19T09:11:09;3.30;;;1.63;;
3589;SDS011;1809;48.470;9.226;2023-09-19T09:13:36;1.93;;;1.10;;
3589;SDS011;1809;48.470;9.226;2023-09-19T09:16:06;2.43;;;1.40;;
3589;SDS011;1809;48.470;9.226;2023-09-19T09:18:32;1.40;;;1.30;;
3589;SDS011;1809;48.470;9.226;2023-09-19T09:20:58;1.57;;;1.27;;
3589;SDS011;1809;48.470;9.226;2023-09-19T09:23:23;2.30;;;2.10;;
3589;SDS011;1809;48.470;9.226;2023-09-19T09:28:20;2.40;;;1.07;;
3589;SDS011;1809;48.470;9.226;2023-09-19T09:30:46;1.47;;;1.30;;
3589;SDS011;1809;48.470;9.226;2023-09-19T09:33:12;1.47;;;1.37;;
3589;SDS011;1809;48.470;9.226;2023-09-19T09:38:29;2.37;;;1.80;;
3589;SDS011;1809;48.470;9.226;2023-09-19T09:41:08;1.30;;;1.20;;
3589;SDS011;1809;48.470;9.226;2023-09-19T09:43:38;3.00;;;1.73;;
3589;SDS011;1809;48.470;9.226;2023-09-19T09:46:16;1.33;;;1.20;;
3589;SDS011;1809;48.470;9.226;2023-09-19T09:51:42;1.00;;;1.00;;
3589;SDS011;1809;48.470;9.226;2023-09-19T09:54:12;1.83;;;1.37;;
3589;SDS011;1809;48.470;9.226;2023-09-19T09:56:51;1.30;;;1.13;;
3589;SDS011;1809;48.470;9.226;2023-09-19T09:59:18;2.70;;;1.50;;
3589;SDS011;1809;48.470;9.226;2023-09-19T10:01:47;1.30;;;1.20;;
3589;SDS011;1809;48.470;9.226;2023-09-19T10:04:28;1.67;;;1.57;;
3589;SDS011;1809;48.470;9.226;2023-09-19T10:07:01;18.37;;;2.23;;
3589;SDS011;1809;48.470;9.226;2023-09-19T10:09:30;1.50;;;1.40;;
3589;SDS011;1809;48.470;9.226;2023-09-19T10:12:09;1.07;;;1.07;;
3589;SDS011;1809;48.470;9.226;2023-09-19T10:14:38;0.90;;;0.90;;
3589;SDS011;1809;48.470;9.226;2023-09-19T10:17:08;1.30;;;1.10;;
3589;SDS011;1809;48.470;9.226;2023-09-19T10:22:31;5.30;;;1.93;;
3589;SDS011;1809;48.470;9.226;2023-09-19T10:25:00;1.77;;;1.20;;
3589;SDS011;1809;48.470;9.226;2023-09-19T10:27:28;1.10;;;1.10;;
3589;SDS011;1809;48.470;9.226;2023-09-19T10:29:54;1.73;;;1.57;;
3589;SDS011;1809;48.470;9.226;2023-09-19T10:32:22;2.60;;;1.63;;
3589;SDS011;1809;48.470;9.226;2023-09-19T10:34:49;1.27;;;1.10;;
3589;SDS011;1809;48.470;9.226;2023-09-19T10:37:17;10.03;;;1.40;;
3589;SDS011;1809;48.470;9.226;2023-09-19T10:39:48;2.40;;;1.20;;
3589;SDS011;1809;48.470;9.226;2023-09-19T10:42:16;1.30;;;1.20;;
3589;SDS011;1809;48.470;9.226;2023-09-19T10:44:45;1.83;;;1.73;;
3589;SDS011;1809;48.470;9.226;2023-09-19T10:47:14;1.00;;;1.00;;
3589;SDS011;1809;48.470;9.226;2023-09-19T10:49:44;1.27;;;1.10;;
3589;SDS011;1809;48.470;9.226;2023-09-19T10:52:11;6.63;;;1.57;;
3589;SDS011;1809;48.470;9.226;2023-09-19T10:54:44;1.20;;;1.20;;
3589;SDS011;1809;48.470;9.226;2023-09-19T10:57:19;3.17;;;1.77;;
3589;SDS011;1809;48.470;9.226;2023-09-19T11:00:02;1.30;;;1.20;;
3589;SDS011;1809;48.470;9.226;2023-09-19T11:03:30;1.70;;;1.60;;
3589;SDS011;1809;48.470;9.226;2023-09-19T11:06:04;1.47;;;1.40;;
3589;SDS011;1809;48.470;9.226;2023-09-19T11:30:32;1.30;;;1.20;;
3589;SDS011;1809;48.470;9.226;2023-09-19T11:46:16;2.40;;;1.30;;
3589;SDS011;1809;48.470;9.226;2023-09-19T11:48:47;2.50;;;1.50;;
3589;SDS011;1809;48.470;9.226;2023-09-19T11:51:14;2.10;;;1.37;;
3589;SDS011;1809;48.470;9.226;2023-09-19T11:53:45;1.57;;;1.30;;
3589;SDS011;1809;48.470;9.226;2023-09-19T11:56:13;2.67;;;1.10;;
3589;SDS011;1809;48.470;9.226;2023-09-19T11:58:42;2.67;;;1.40;;
3589;SDS011;1809;48.470;9.226;2023-09-19T12:01:08;1.07;;;1.07;;
3589;SDS011;1809;48.470;9.226;2023-09-19T12:03:45;1.20;;;1.10;;
3589;SDS011;1809;48.470;9.226;2023-09-19T12:06:13;0.90;;;0.90;;
3589;SDS011;1809;48.470;9.226;2023-09-19T12:08:43;1.47;;;1.30;;
3589;SDS011;1809;48.470;9.226;2023-09-19T12:11:12;2.13;;;1.30;;
3589;SDS011;1809;48.470;9.226;2023-09-19T12:13:47;1.60;;;1.10;;
3589;SDS011;1809;48.470;9.226;2023-09-19T12:16:17;1.67;;;1.20;;
3589;SDS011;1809;48.470;9.226;2023-09-19T12:18:47;1.30;;;1.20;;
3589;SDS011;1809;48.470;9.226;2023-09-19T12:26:46;1.10;;;1.10;;
3589;SDS011;1809;48.470;9.226;2023-09-19T12:29:20;1.37;;;1.00;;
3589;SDS011;1809;48.470;9.226;2023-09-19T12:34:21;1.00;;;1.00;;
3589;SDS011;1809;48.470;9.226;2023-09-19T12:37:06;1.40;;;1.23;;
3589;SDS011;1809;48.470;9.226;2023-09-19T12:39:52;1.30;;;1.20;;
3589;SDS011;1809;48.470;9.226;2023-09-19T12:42:22;3.00;;;1.40;;
3589;SDS011;1809;48.470;9.226;2023-09-19T12:44:49;5.23;;;1.30;;
3589;SDS011;1809;48.470;9.226;2023-09-19T12:47:22;2.83;;;1.60;;
3589;SDS011;1809;48.470;9.226;2023-09-19T12:52:41;2.20;;;1.43;;
3589;SDS011;1809;48.470;9.226;2023-09-19T13:00:41;1.40;;;1.30;;
3589;SDS011;1809;48.470;9.226;2023-09-19T13:05:50;5.03;;;1.53;;
3589;SDS011;1809;48.470;9.226;2023-09-19T13:08:24;4.33;;;1.30;;
3589;SDS011;1809;48.470;9.226;2023-09-19T13:11:16;3.73;;;1.50;;
3589;SDS011;1809;48.470;9.226;2023-09-19T13:13:49;1.67;;;1.57;;
3589;SDS011;1809;48.470;9.226;2023-09-19T13:16:20;1.70;;;1.60;;
3589;SDS011;1809;48.470;9.226;2023-09-19T13:18:51;1.27;;;1.20;;
3589;SDS011;1809;48.470;9.226;2023-09-19T13:21:34;1.30;;;1.20;;
3589;SDS011;1809;48.470;9.226;2023-09-19T13:24:18;2.70;;;1.50;;
3589;SDS011;1809;48.470;9.226;2023-09-19T13:26:48;1.40;;;1.30;;
3589;SDS011;1809;48.470;9.226;2023-09-19T13:29:13;2.60;;;1.30;;
3589;SDS011;1809;48.470;9.226;2023-09-19T13:31:44;5.90;;;1.40;;
3589;SDS011;1809;48.470;9.226;2023-09-19T13:34:10;1.40;;;1.30;;
3589;SDS011;1809;48.470;9.226;2023-09-19T13:36:36;1.30;;;1.20;;
3589;SDS011;1809;48.470;9.226;2023-09-19T13:39:02;1.40;;;1.23;;
3589;SDS011;1809;48.470;9.226;2023-09-19T13:41:30;1.07;;;0.97;;
3589;SDS011;1809;48.470;9.226;2023-09-19T13:43:56;1.27;;;1.17;;
3589;SDS011;1809;48.470;9.226;2023-09-19T13:46:22;1.60;;;1.60;;
3589;SDS011;1809;48.470;9.226;2023-09-19T13:48:50;4.97;;;1.20;;
3589;SDS011;1809;48.470;9.226;2023-09-19T13:51:17;5.00;;;2.20;;
3589;SDS011;1809;48.470;9.226;2023-09-19T13:53:44;1.40;;;1.30;;
3589;SDS011;1809;48.470;9.226;2023-09-19T13:56:10;1.23;;;1.13;;
3589;SDS011;1809;48.470;9.226;2023-09-19T13:58:36;2.43;;;1.47;;
3589;SDS011;1809;48.470;9.226;2023-09-19T14:01:01;1.20;;;1.20;;
3589;SDS011;1809;48.470;9.226;2023-09-19T14:03:27;1.43;;;1.43;;
3589;SDS011;1809;48.470;9.226;2023-09-19T14:05:53;1.67;;;1.10;;
3589;SDS011;1809;48.470;9.226;2023-09-19T14:08:19;2.97;;;1.20;;
3589;SDS011;1809;48.470;9.226;2023-09-19T14:10:44;1.53;;;1.43;;
3589;SDS011;1809;48.470;9.226;2023-09-19T14:13:10;1.30;;;1.23;;
3589;SDS011;1809;48.470;9.226;2023-09-19T14:15:38;2.40;;;1.30;;
3589;SDS011;1809;48.470;9.226;2023-09-19T14:18:04;1.57;;;1.47;;
3589;SDS011;1809;48.470;9.226;2023-09-19T14:20:30;1.50;;;1.40;;
3589;SDS011;1809;48.470;9.226;2023-09-19T14:22:56;3.17;;;1.67;;
3589;SDS011;1809;48.470;9.226;2023-09-19T14:25:23;1.30;;;1.30;;
3589;SDS011;1809;48.470;9.226;2023-09-19T14:27:49;1.30;;;1.20;;
3589;SDS011;1809;48.470;9.226;2023-09-19T14:30:15;3.07;;;1.30;;
3589;SDS011;1809;48.470;9.226;2023-09-19T14:32:40;1.63;;;1.43;;
3589;SDS011;1809;48.470;9.226;2023-09-19T14:35:09;2.50;;;1.40;;
3589;SDS011;1809;48.470;9.226;2023-09-19T14:37:35;1.70;;;1.60;;
3589;SDS011;1809;48.470;9.226;2023-09-19T14:40:00;1.50;;;1.40;;
3589;SDS011;1809;48.470;9.226;2023-09-19T14:42:32;2.83;;;1.33;;
3589;SDS011;1809;48.470;9.226;2023-09-19T14:44:57;3.43;;;1.57;;
3589;SDS011;1809;48.470;9.226;2023-09-19T14:47:22;1.67;;;1.57;;
3589;SDS011;1809;48.470;9.226;2023-09-19T14:49:48;1.97;;;1.30;;
3589;SDS011;1809;48.470;9.226;2023-09-19T14:52:14;1.47;;;1.37;;
3589;SDS011;1809;48.470;9.226;2023-09-19T14:54:40;4.90;;;1.53;;
3589;SDS011;1809;48.470;9.226;2023-09-19T14:57:06;12.27;;;1.70;;
3589;SDS011;1809;48.470;9.226;2023-09-19T14:59:33;1.33;;;1.23;;
3589;SDS011;1809;48.470;9.226;2023-09-19T15:02:02;1.77;;;1.67;;
3589;SDS011;1809;48.470;9.226;2023-09-19T15:04:31;3.43;;;1.50;;
3589;SDS011;1809;48.470;9.226;2023-09-19T15:06:57;2.50;;;2.00;;
3589;SDS011;1809;48.470;9.226;2023-09-19T15:09:23;2.17;;;1.80;;
3589;SDS011;1809;48.470;9.226;2023-09-19T15:11:51;1.40;;;1.30;;
3589;SDS011;1809;48.470;9.226;2023-09-19T15:14:19;1.27;;;1.27;;
3589;SDS011;1809;48.470;9.226;2023-09-19T15:16:46;2.70;;;1.40;;
3589;SDS011;1809;48.470;9.226;2023-09-19T15:19:11;3.23;;;1.90;;
3589;SDS011;1809;48.470;9.226;2023-09-19T15:21:37;1.50;;;1.40;;
3589;SDS011;1809;48.470;9.226;2023-09-19T15:24:02;4.33;;;1.83;;
3589;SDS011;1809;48.470;9.226;2023-09-19T15:26:28;1.70;;;1.60;;
3589;SDS011;1809;48.470;9.226;2023-09-19T15:28:54;1.67;;;1.57;;
3589;SDS011;1809;48.470;9.226;2023-09-19T15:31:20;2.80;;;1.70;;
3589;SDS011;1809;48.470;9.226;2023-09-19T15:33:45;1.73;;;1.60;;
3589;SDS011;1809;48.470;9.226;2023-09-19T15:36:11;3.03;;;1.40;;
3589;SDS011;1809;48.470;9.226;2023-09-19T15:41:35;1.63;;;1.53;;
3589;SDS011;1809;48.470;9.226;2023-09-19T15:44:12;4.60;;;1.37;;
3589;SDS011;1809;48.470;9.226;2023-09-19T15:46:40;1.67;;;1.57;;
3589;SDS011;1809;48.470;9.226;2023-09-19T15:49:06;3.97;;;1.83;;
3589;SDS011;1809;48.470;9.226;2023-09-19T15:51:32;1.73;;;1.53;;
3589;SDS011;1809;48.470;9.226;2023-09-19T15:53:57;1.73;;;1.27;;
3589;SDS011;1809;48.470;9.226;2023-09-19T15:56:25;1.50;;;1.40;;
3589;SDS011;1809;48.470;9.226;2023-09-19T15:58:50;4.13;;;1.60;;
3589;SDS011;1809;48.470;9.226;2023-09-19T16:01:17;1.43;;;1.33;;
3589;SDS011;1809;48.470;9.226;2023-09-19T16:03:46;2.77;;;1.83;;
3589;SDS011;1809;48.470;9.226;2023-09-19T16:06:17;2.83;;;1.57;;
3589;SDS011;1809;48.470;9.226;2023-09-19T16:08:45;7.07;;;2.30;;
3589;SDS011;1809;48.470;9.226;2023-09-19T16:11:11;3.17;;;1.60;;
3589;SDS011;1809;48.470;9.226;2023-09-19T16:13:38;2.07;;;1.97;;
3589;SDS011;1809;48.470;9.226;2023-09-19T16:16:04;2.40;;;1.60;;
3589;SDS011;1809;48.470;9.226;2023-09-19T16:18:30;1.77;;;1.67;;
3589;SDS011;1809;48.470;9.226;2023-09-19T16:21:05;1.90;;;1.80;;
3589;SDS011;1809;48.470;9.226;2023-09-19T16:23:33;3.43;;;1.80;;
3589;SDS011;1809;48.470;9.226;2023-09-19T16:28:29;1.90;;;1.63;;
3589;SDS011;1809;48.470;9.226;2023-09-19T16:30:57;4.20;;;1.97;;
3589;SDS011;1809;48.470;9.226;2023-09-19T16:33:23;1.53;;;1.43;;
3589;SDS011;1809;48.470;9.226;2023-09-19T16:35:48;2.20;;;2.10;;
3589;SDS011;1809;48.470;9.226;2023-09-19T16:38:14;3.43;;;2.17;;
3589;SDS011;1809;48.470;9.226;2023-09-19T16:40:39;2.00;;;1.80;;
3589;SDS011;1809;48.470;9.226;2023-09-19T16:43:06;2.50;;;1.97;;
3589;SDS011;1809;48.470;9.226;2023-09-19T16:45:32;2.17;;;1.53;;
3589;SDS011;1809;48.470;9.226;2023-09-19T16:47:57;3.17;;;1.97;;